Time;durP1;ratioP1;P1;durP2;ratioP2;P2;SDS_P1;SDS_P2;PMS_P1;PMS_P2;Temp;Humidity;BMP_temperature;BMP_pressure;BME280_temperature;BME280_humidity;BME280_pressure;Samples;Min_cycle;Max_cycle;Signal;HPM_P1;HPM_P2
2023/09/17 00:00:30;;;;;;;41.57;37.07;;;17.90;99.90;;;;;;5046747;28;20469;-71
2023/09/17 00:02:57;;;;;;;43.37;38.50;;;17.80;99.90;;;;;;5055071;28;20883;-74
2023/09/17 00:05:24;;;;;;;41.30;36.80;;;17.80;99.90;;;;;;5046080;28;20444;-75
2023/09/17 00:07:52;;;;;;;50.43;43.80;;;17.70;99.90;;;;;;5045861;28;20528;-75
2023/09/17 00:10:19;;;;;;;46.30;40.60;;;17.80;99.90;;;;;;5052752;28;20454;-73
2023/09/17 00:12:46;;;;;;;46.40;41.67;;;17.80;99.90;;;;;;5040282;28;20553;-74
2023/09/17 00:15:13;;;;;;;50.10;44.80;;;17.70;99.90;;;;;;5046695;28;20845;-74
2023/09/17 00:17:40;;;;;;;44.70;38.93;;;17.70;99.90;;;;;;5055337;28;20540;-73
2023/09/17 00:20:10;;;;;;;51.23;45.90;;;17.70;99.90;;;;;;5051020;28;20481;-75
2023/09/17 00:22:38;;;;;;;47.10;40.37;;;17.70;99.90;;;;;;5055155;28;20446;-74
2023/09/17 00:25:06;;;;;;;45.13;40.37;;;17.60;99.90;;;;;;5048906;28;20458;-76
2023/09/17 00:27:40;;;;;;;43.20;38.80;;;17.60;99.90;;;;;;5046645;28;20504;-72
2023/09/17 00:30:09;;;;;;;46.40;41.60;;;17.60;99.90;;;;;;5052614;28;20480;-73
2023/09/17 00:32:36;;;;;;;49.20;44.10;;;17.60;99.90;;;;;;5041441;28;20488;-73
2023/09/17 00:35:05;;;;;;;45.67;41.00;;;17.60;99.90;;;;;;5049342;28;20447;-73
2023/09/17 00:37:31;;;;;;;53.33;46.85;;;17.60;99.90;;;;;;5052317;28;20578;-72
2023/09/17 00:39:58;;;;;;;46.43;41.40;;;17.60;99.90;;;;;;5053960;28;20672;-72
2023/09/17 00:42:27;;;;;;;58.70;49.87;;;17.50;99.90;;;;;;5049944;28;20600;-76
2023/09/17 00:44:53;;;;;;;52.50;46.80;;;17.50;99.90;;;;;;5043114;28;20869;-73
2023/09/17 00:47:21;;;;;;;53.90;48.40;;;17.50;99.90;;;;;;5050796;28;20523;-74
2023/09/17 00:49:48;;;;;;;49.63;44.43;;;17.50;99.90;;;;;;5045523;28;20457;-73
2023/09/17 00:52:19;;;;;;;57.40;49.58;;;17.50;99.90;;;;;;5050507;28;20487;-74
2023/09/17 00:54:50;;;;;;;52.05;46.47;;;17.40;99.90;;;;;;5048772;28;20327;-74
2023/09/17 00:57:19;;;;;;;55.67;49.42;;;17.40;99.90;;;;;;5046494;28;20729;-74
2023/09/17 00:59:48;;;;;;;57.93;48.70;;;17.40;99.90;;;;;;5045947;28;20211;-71
2023/09/17 01:02:17;;;;;;;52.08;46.10;;;17.40;99.90;;;;;;5047110;28;20845;-72
2023/09/17 01:04:49;;;;;;;52.33;46.87;;;17.40;99.90;;;;;;5051362;28;20206;-74
2023/09/17 01:07:17;;;;;;;56.90;48.50;;;17.40;99.90;;;;;;5048200;28;20475;-74
2023/09/17 01:09:44;;;;;;;55.63;49.47;;;17.40;99.90;;;;;;5047791;28;20450;-73
2023/09/17 01:12:12;;;;;;;59.77;51.30;;;17.40;99.90;;;;;;5043535;28;20623;-72
2023/09/17 01:14:39;;;;;;;54.00;47.67;;;17.40;99.90;;;;;;5048903;28;20460;-70
2023/09/17 01:17:09;;;;;;;56.72;50.53;;;17.40;99.90;;;;;;5048082;28;20839;-74
2023/09/17 01:19:42;;;;;;;55.60;47.63;;;17.40;99.90;;;;;;5038569;28;20205;-72
2023/09/17 01:22:17;;;;;;;57.40;51.30;;;17.40;99.90;;;;;;5050832;28;20481;-73
2023/09/17 01:24:49;;;;;;;51.20;45.80;;;17.40;99.90;;;;;;5024661;28;20456;-74
2023/09/17 01:27:19;;;;;;;56.07;49.93;;;17.40;99.90;;;;;;5047065;28;20454;-74
2023/09/17 01:29:47;;;;;;;56.67;50.20;;;17.40;99.90;;;;;;5050699;28;20472;-74
2023/09/17 01:32:14;;;;;;;64.10;51.73;;;17.40;99.90;;;;;;5043643;28;20452;-73
2023/09/17 01:34:43;;;;;;;58.93;52.70;;;17.40;99.90;;;;;;5050516;28;20443;-72
2023/09/17 01:37:15;;;;;;;53.70;47.77;;;17.40;99.90;;;;;;5050423;28;20844;-72
2023/09/17 01:39:47;;;;;;;63.70;54.03;;;17.40;99.90;;;;;;5047053;28;20443;-75
2023/09/17 01:42:15;;;;;;;63.67;54.60;;;17.40;99.90;;;;;;5045616;28;20496;-75
2023/09/17 01:44:45;;;;;;;65.77;53.80;;;17.50;99.90;;;;;;5051982;28;20561;-71
2023/09/17 01:47:13;;;;;;;60.67;53.57;;;17.50;99.90;;;;;;5047574;28;20458;-73
2023/09/17 01:49:41;;;;;;;52.50;45.90;;;17.40;99.90;;;;;;5044026;28;20480;-73
2023/09/17 01:52:10;;;;;;;64.23;55.00;;;17.40;99.90;;;;;;5050743;28;20439;-73
2023/09/17 01:54:43;;;;;;;60.30;52.58;;;17.40;99.90;;;;;;5041058;28;20560;-71
2023/09/17 01:57:10;;;;;;;56.20;49.10;;;17.40;99.90;;;;;;5051463;28;20269;-72
2023/09/17 01:59:37;;;;;;;60.80;53.37;;;17.40;99.90;;;;;;5049559;28;20447;-75
2023/09/17 02:02:06;;;;;;;57.60;51.40;;;17.40;99.90;;;;;;5050334;28;20495;-76
2023/09/17 02:04:34;;;;;;;60.63;51.50;;;17.40;99.90;;;;;;5045928;28;20539;-73
2023/09/17 02:07:01;;;;;;;62.00;54.03;;;17.40;99.90;;;;;;5049930;28;20560;-75
2023/09/17 02:09:28;;;;;;;63.10;51.47;;;17.30;99.90;;;;;;5048903;28;20543;-74
2023/09/17 02:11:55;;;;;;;63.30;53.67;;;17.30;99.90;;;;;;5047164;28;20438;-73
2023/09/17 02:14:21;;;;;;;58.77;50.33;;;17.30;99.90;;;;;;5052801;28;20528;-73
2023/09/17 02:16:49;;;;;;;71.37;58.67;;;17.30;99.90;;;;;;5051501;28;20796;-74
2023/09/17 02:19:17;;;;;;;60.67;51.10;;;17.20;99.90;;;;;;5051242;28;20791;-75
2023/09/17 02:21:44;;;;;;;58.33;51.22;;;17.20;99.90;;;;;;5045551;28;20600;-75
2023/09/17 02:24:12;;;;;;;61.10;53.10;;;17.20;99.90;;;;;;5042176;28;20206;-72
2023/09/17 02:27:08;;;;;;;61.00;53.83;;;17.20;99.90;;;;;;5049063;28;20524;-74
2023/09/17 02:29:35;;;;;;;60.70;52.97;;;17.20;99.90;;;;;;5053273;28;20438;-73
2023/09/17 02:32:03;;;;;;;61.40;52.60;;;17.20;99.90;;;;;;5046883;28;20472;-73
2023/09/17 02:34:32;;;;;;;74.40;60.40;;;17.20;99.90;;;;;;5055401;28;20194;-72
2023/09/17 02:36:59;;;;;;;60.70;53.93;;;17.20;99.90;;;;;;5061982;28;20468;-74
2023/09/17 02:39:26;;;;;;;65.57;55.03;;;17.10;99.90;;;;;;5060481;28;20453;-73
2023/09/17 02:41:54;;;;;;;67.10;55.23;;;17.10;99.90;;;;;;5064991;28;20592;-71
2023/09/17 02:44:21;;;;;;;60.73;50.20;;;17.10;99.90;;;;;;5060512;28;20453;-70
2023/09/17 02:46:48;;;;;;;58.33;51.97;;;17.10;99.90;;;;;;5056882;28;20463;-72
2023/09/17 02:49:15;;;;;;;62.53;51.80;;;17.10;99.90;;;;;;5049395;28;20272;-76
2023/09/17 02:51:43;;;;;;;64.38;53.97;;;17.00;99.90;;;;;;5054212;28;20432;-74
2023/09/17 02:54:10;;;;;;;65.35;54.70;;;17.10;99.90;;;;;;5048779;28;20295;-74
2023/09/17 02:56:37;;;;;;;66.97;54.58;;;17.00;99.90;;;;;;5052321;28;20222;-72
2023/09/17 02:59:05;;;;;;;68.17;53.60;;;17.00;99.90;;;;;;5048282;28;20568;-74
2023/09/17 03:01:32;;;;;;;68.43;58.77;;;17.00;99.90;;;;;;5043103;28;20842;-72
2023/09/17 03:04:00;;;;;;;71.57;57.28;;;17.00;99.90;;;;;;5045054;28;20464;-73
2023/09/17 03:06:27;;;;;;;72.47;55.70;;;16.90;99.90;;;;;;5052961;28;20251;-73
2023/09/17 03:08:56;;;;;;;69.53;56.00;;;16.90;99.90;;;;;;5054246;28;20482;-72
2023/09/17 03:11:26;;;;;;;70.60;54.40;;;16.90;99.90;;;;;;5055260;28;20444;-75
2023/09/17 03:13:53;;;;;;;67.20;56.00;;;17.00;99.90;;;;;;5047105;28;20724;-72
2023/09/17 03:16:20;;;;;;;71.80;58.40;;;16.90;99.90;;;;;;5052349;28;20258;-71
2023/09/17 03:18:47;;;;;;;76.15;59.97;;;16.90;99.90;;;;;;5048566;28;20487;-71
2023/09/17 03:21:15;;;;;;;82.30;63.80;;;16.90;99.90;;;;;;5050751;28;20690;-70
2023/09/17 03:23:42;;;;;;;84.55;64.43;;;16.90;99.90;;;;;;5055668;28;20245;-71
2023/09/17 03:26:10;;;;;;;85.20;65.73;;;17.00;99.90;;;;;;5058184;28;20225;-72
2023/09/17 03:28:37;;;;;;;75.20;63.22;;;16.90;99.90;;;;;;5050606;28;20535;-74
2023/09/17 03:31:04;;;;;;;87.63;65.30;;;16.90;99.90;;;;;;5051579;28;20203;-74
2023/09/17 03:33:31;;;;;;;77.53;62.15;;;16.90;99.90;;;;;;5054654;28;20530;-72
2023/09/17 03:35:59;;;;;;;80.07;62.30;;;17.00;99.90;;;;;;5049998;28;20317;-72
2023/09/17 03:38:26;;;;;;;72.53;56.20;;;17.00;99.90;;;;;;5054631;28;20788;-74
2023/09/17 03:40:54;;;;;;;74.97;57.20;;;16.90;99.90;;;;;;5052210;28;20469;-73
2023/09/17 03:43:22;;;;;;;67.72;57.17;;;17.00;99.90;;;;;;5057617;28;20561;-73
2023/09/17 03:45:51;;;;;;;73.90;61.67;;;17.00;99.90;;;;;;5051168;28;20254;-72
2023/09/17 03:48:18;;;;;;;71.83;57.30;;;17.00;99.90;;;;;;5052767;28;20451;-72
2023/09/17 03:50:45;;;;;;;78.03;61.35;;;17.10;99.90;;;;;;5051608;28;20456;-73
2023/09/17 03:53:14;;;;;;;72.20;58.27;;;17.10;99.90;;;;;;5054476;28;20194;-75
2023/09/17 03:55:41;;;;;;;68.55;53.97;;;17.20;99.90;;;;;;5054086;28;20544;-72
2023/09/17 03:58:11;;;;;;;78.50;58.00;;;17.10;99.90;;;;;;5052204;28;20202;-75
2023/09/17 04:00:40;;;;;;;70.20;58.37;;;17.10;99.90;;;;;;5044435;28;20451;-73
2023/09/17 04:03:08;;;;;;;60.10;52.17;;;17.20;99.90;;;;;;5048022;28;20558;-73
2023/09/17 04:05:35;;;;;;;72.90;61.67;;;17.10;99.90;;;;;;5055004;28;20770;-74
2023/09/17 04:08:03;;;;;;;67.53;55.47;;;17.20;99.90;;;;;;5050141;28;20300;-73
2023/09/17 04:10:38;;;;;;;66.00;53.60;;;17.20;99.90;;;;;;5048722;28;20932;-74
2023/09/17 04:13:06;;;;;;;60.87;47.37;;;17.10;99.90;;;;;;5049232;28;20531;-72
2023/09/17 04:15:35;;;;;;;56.03;47.17;;;17.20;99.90;;;;;;5049482;28;20447;-73
2023/09/17 04:18:04;;;;;;;65.13;53.30;;;17.20;99.90;;;;;;5050990;28;20452;-74
2023/09/17 04:20:32;;;;;;;57.57;49.50;;;17.20;99.90;;;;;;5042721;28;20460;-74
2023/09/17 04:22:58;;;;;;;56.80;47.00;;;17.20;99.90;;;;;;5047505;28;20860;-73
2023/09/17 04:25:25;;;;;;;58.03;48.33;;;17.30;99.90;;;;;;5047188;28;20525;-73
2023/09/17 04:27:53;;;;;;;60.50;49.57;;;17.20;99.90;;;;;;5044271;28;21030;-72
2023/09/17 04:30:20;;;;;;;57.30;49.07;;;17.30;99.90;;;;;;5045482;28;20932;-71
2023/09/17 04:32:48;;;;;;;64.60;51.90;;;17.30;99.90;;;;;;5043218;28;20462;-74
2023/09/17 04:35:17;;;;;;;65.07;51.77;;;17.30;99.90;;;;;;5045819;28;20449;-75
2023/09/17 04:37:46;;;;;;;67.87;51.87;;;17.30;99.90;;;;;;5045440;28;20452;-73
2023/09/17 04:40:13;;;;;;;60.87;50.70;;;17.20;99.90;;;;;;5042381;28;20449;-74
2023/09/17 04:42:43;;;;;;;60.87;50.80;;;17.30;99.90;;;;;;5045022;28;20490;-72
2023/09/17 04:45:11;;;;;;;54.87;45.67;;;17.30;99.90;;;;;;5049819;28;20457;-73
2023/09/17 04:47:39;;;;;;;59.43;49.37;;;17.30;99.90;;;;;;5047179;28;20833;-72
2023/09/17 04:50:08;;;;;;;60.63;50.63;;;17.30;99.90;;;;;;5051614;28;20464;-71
2023/09/17 04:52:37;;;;;;;53.53;46.67;;;17.30;99.90;;;;;;5045949;28;20457;-75
2023/09/17 04:55:05;;;;;;;62.90;51.60;;;17.30;99.90;;;;;;5049529;28;20877;-74
2023/09/17 04:57:32;;;;;;;61.17;51.88;;;17.30;99.90;;;;;;5048300;28;20546;-73
2023/09/17 05:00:07;;;;;;;57.83;49.60;;;17.30;99.90;;;;;;5047770;28;20205;-71
2023/09/17 05:02:34;;;;;;;61.40;51.40;;;17.30;99.90;;;;;;5032162;28;20553;-73
2023/09/17 05:05:01;;;;;;;52.90;46.70;;;17.30;99.90;;;;;;5048238;28;20291;-74
2023/09/17 05:07:28;;;;;;;59.93;51.03;;;17.20;99.90;;;;;;5053264;28;20494;-73
2023/09/17 05:09:56;;;;;;;58.38;48.00;;;17.30;99.90;;;;;;5052092;28;20440;-72
2023/09/17 05:12:23;;;;;;;62.23;50.63;;;17.30;99.90;;;;;;5045680;28;20223;-76
2023/09/17 05:14:50;;;;;;;53.92;45.88;;;17.30;99.90;;;;;;5049068;28;20445;-72
2023/09/17 05:17:17;;;;;;;62.83;53.07;;;17.30;99.90;;;;;;5043399;28;20229;-71
2023/09/17 05:19:44;;;;;;;61.47;52.43;;;17.30;99.90;;;;;;5052952;28;20614;-73
2023/09/17 05:22:11;;;;;;;63.70;51.97;;;17.30;99.90;;;;;;5045960;28;20575;-74
2023/09/17 05:24:38;;;;;;;79.30;65.73;;;17.30;99.90;;;;;;5046761;28;20458;-73
2023/09/17 05:27:06;;;;;;;58.20;50.93;;;17.20;99.90;;;;;;5051418;28;20462;-74
2023/09/17 05:29:33;;;;;;;61.67;50.37;;;17.30;99.90;;;;;;5046833;28;20492;-77
2023/09/17 05:32:00;;;;;;;56.57;50.17;;;17.30;99.90;;;;;;5054694;28;20505;-74
2023/09/17 05:34:27;;;;;;;59.63;51.25;;;17.30;99.90;;;;;;5054847;28;20455;-75
2023/09/17 05:36:54;;;;;;;54.63;47.23;;;17.30;99.90;;;;;;5049330;28;20224;-76
2023/09/17 05:39:21;;;;;;;66.37;53.80;;;17.30;99.90;;;;;;5049646;28;20525;-72
2023/09/17 05:41:48;;;;;;;53.58;47.25;;;17.20;99.90;;;;;;5038800;28;20445;-72
2023/09/17 05:44:16;;;;;;;65.83;53.83;;;17.20;99.90;;;;;;5051743;28;20301;-73
2023/09/17 05:46:43;;;;;;;53.33;43.70;;;17.20;99.90;;;;;;5047409;28;20556;-73
2023/09/17 05:49:09;;;;;;;52.43;46.73;;;17.10;99.90;;;;;;5052128;28;20652;-75
2023/09/17 05:51:40;;;;;;;56.85;46.85;;;17.20;99.90;;;;;;5048024;28;20449;-73
2023/09/17 05:54:07;;;;;;;55.27;48.03;;;17.30;99.90;;;;;;5045996;28;20285;-74
2023/09/17 05:56:34;;;;;;;60.87;50.97;;;17.30;99.90;;;;;;5049255;28;20590;-74
2023/09/17 05:59:01;;;;;;;56.30;45.83;;;17.30;99.90;;;;;;5052802;28;20532;-74
2023/09/17 06:01:30;;;;;;;50.23;41.97;;;17.30;99.90;;;;;;5038557;28;20504;-73
2023/09/17 06:03:57;;;;;;;48.60;42.27;;;17.40;99.90;;;;;;5049984;28;20991;-75
2023/09/17 06:06:23;;;;;;;55.88;45.90;;;17.40;99.90;;;;;;5046899;28;20466;-73
2023/09/17 06:08:50;;;;;;;48.95;41.92;;;17.40;99.90;;;;;;5046502;28;20296;-73
2023/09/17 06:11:18;;;;;;;53.87;47.97;;;17.50;99.90;;;;;;5045250;28;20209;-75
2023/09/17 06:13:45;;;;;;;47.80;42.60;;;17.50;99.90;;;;;;5043798;28;20959;-72
2023/09/17 06:16:12;;;;;;;44.83;40.07;;;17.60;99.90;;;;;;5047090;28;20647;-73
2023/09/17 06:18:40;;;;;;;47.60;40.70;;;17.70;99.90;;;;;;5045524;28;20471;-74
2023/09/17 06:21:07;;;;;;;53.70;46.50;;;17.80;99.90;;;;;;5051465;28;20963;-74
2023/09/17 06:23:35;;;;;;;51.97;46.07;;;17.80;99.90;;;;;;5044271;28;20600;-73
2023/09/17 06:26:02;;;;;;;45.50;40.47;;;17.90;99.90;;;;;;5043940;28;20470;-72
2023/09/17 06:28:29;;;;;;;49.53;44.13;;;18.00;99.90;;;;;;5048577;28;20442;-75
2023/09/17 06:30:56;;;;;;;47.60;42.60;;;18.00;99.90;;;;;;5043605;28;20916;-74
2023/09/17 06:33:23;;;;;;;47.23;42.10;;;18.10;99.90;;;;;;5048432;28;20431;-71
2023/09/17 06:35:52;;;;;;;46.33;38.77;;;18.10;99.90;;;;;;5035258;28;20457;-73
2023/09/17 06:38:18;;;;;;;47.67;40.90;;;18.10;99.90;;;;;;5046235;28;20446;-72
2023/09/17 06:40:45;;;;;;;49.90;44.50;;;18.10;99.90;;;;;;5047627;28;20476;-74
2023/09/17 06:43:13;;;;;;;46.13;41.13;;;18.10;99.90;;;;;;5040260;28;20490;-73
2023/09/17 06:45:40;;;;;;;39.90;35.77;;;18.20;99.90;;;;;;5046233;28;20987;-72
2023/09/17 06:48:07;;;;;;;47.40;41.80;;;18.30;99.90;;;;;;5042941;28;20454;-73
2023/09/17 06:50:34;;;;;;;50.00;44.33;;;18.40;99.90;;;;;;5042073;28;20473;-74
2023/09/17 06:53:04;;;;;;;43.70;38.97;;;18.50;99.90;;;;;;5049994;28;20520;-73
2023/09/17 06:55:31;;;;;;;43.37;38.83;;;18.60;99.90;;;;;;5043778;28;20992;-73
2023/09/17 06:57:58;;;;;;;42.07;37.83;;;18.70;99.90;;;;;;5039075;28;20466;-71
2023/09/17 07:00:25;;;;;;;43.17;38.53;;;18.70;99.90;;;;;;5046449;28;20433;-74
2023/09/17 07:02:52;;;;;;;43.20;38.70;;;19.00;99.90;;;;;;5043143;28;20485;-70
2023/09/17 07:05:19;;;;;;;43.20;38.57;;;19.10;99.90;;;;;;5047620;28;20534;-74
2023/09/17 07:07:46;;;;;;;45.27;40.53;;;19.40;99.90;;;;;;5045050;28;20537;-72
2023/09/17 07:10:14;;;;;;;41.13;36.93;;;19.60;99.90;;;;;;5042724;28;20434;-72
2023/09/17 07:12:43;;;;;;;34.17;30.87;;;19.80;99.90;;;;;;5049251;28;20439;-72
2023/09/17 07:15:11;;;;;;;40.80;36.40;;;20.10;99.90;;;;;;5047101;28;20868;-72
2023/09/17 07:17:40;;;;;;;34.60;31.20;;;20.50;99.90;;;;;;5048229;28;20459;-73
2023/09/17 07:20:08;;;;;;;34.00;30.40;;;21.20;99.90;;;;;;5046523;28;20448;-72
2023/09/17 07:22:35;;;;;;;36.50;32.77;;;21.80;99.90;;;;;;5041269;28;20522;-71
2023/09/17 07:25:04;;;;;;;33.00;29.90;;;22.20;99.90;;;;;;5044084;28;20533;-74
2023/09/17 07:27:36;;;;;;;31.77;28.80;;;22.40;99.90;;;;;;5050303;28;20485;-71
2023/09/17 07:30:03;;;;;;;39.37;35.57;;;22.70;99.90;;;;;;5045487;28;20503;-71
2023/09/17 07:32:30;;;;;;;36.37;32.93;;;23.10;99.90;;;;;;5048136;28;20435;-72
2023/09/17 07:34:57;;;;;;;27.20;24.60;;;23.40;99.90;;;;;;5046265;28;20476;-72
2023/09/17 07:37:24;;;;;;;27.03;24.40;;;23.90;99.90;;;;;;5049570;28;20462;-72
2023/09/17 07:40:01;;;;;;;29.70;26.90;;;24.30;99.90;;;;;;5047105;28;20521;-72
2023/09/17 07:42:28;;;;;;;27.10;24.70;;;24.70;99.90;;;;;;5027253;28;20860;-71
2023/09/17 07:44:56;;;;;;;25.63;23.20;;;24.60;99.90;;;;;;5050764;28;20438;-73
2023/09/17 07:47:23;;;;;;;26.13;23.63;;;24.30;99.90;;;;;;5042537;28;20879;-73
2023/09/17 07:49:50;;;;;;;25.73;23.23;;;23.80;99.90;;;;;;5050291;28;20553;-70
2023/09/17 07:52:17;;;;;;;25.10;22.90;;;23.50;99.90;;;;;;5047374;28;20441;-70
2023/09/17 07:54:44;;;;;;;23.40;21.07;;;23.60;99.90;;;;;;5052640;28;20501;-72
2023/09/17 07:57:13;;;;;;;22.23;20.20;;;24.40;99.90;;;;;;5047336;28;20993;-72
2023/09/17 07:59:41;;;;;;;21.20;19.30;;;25.30;99.90;;;;;;5048284;28;20467;-71
2023/09/17 08:02:11;;;;;;;20.07;18.00;;;26.10;99.90;;;;;;5053915;28;20476;-72
2023/09/17 08:04:38;;;;;;;22.50;20.30;;;26.70;99.90;;;;;;5054624;28;20492;-71
2023/09/17 08:07:05;;;;;;;20.80;18.80;;;27.10;99.50;;;;;;5060223;28;20473;-73
2023/09/17 08:09:32;;;;;;;20.30;18.30;;;27.30;98.50;;;;;;5067720;28;20445;-73
2023/09/17 08:12:00;;;;;;;21.80;19.60;;;27.60;97.20;;;;;;5070682;28;20437;-72
2023/09/17 08:14:28;;;;;;;17.40;15.80;;;27.60;96.50;;;;;;5061550;28;20504;-74
2023/09/17 08:16:55;;;;;;;20.90;19.10;;;28.10;96.10;;;;;;5049719;28;20476;-71
2023/09/17 08:19:23;;;;;;;20.53;18.70;;;28.30;94.40;;;;;;5049866;28;20734;-73
2023/09/17 08:21:50;;;;;;;21.70;19.50;;;28.10;94.10;;;;;;5055030;28;20526;-72
2023/09/17 08:24:20;;;;;;;20.47;18.67;;;27.50;94.80;;;;;;5051828;28;20557;-73
2023/09/17 08:26:47;;;;;;;20.17;18.37;;;26.90;96.10;;;;;;5046898;28;20472;-71
2023/09/17 08:29:15;;;;;;;22.63;20.53;;;26.40;97.30;;;;;;5052070;28;20517;-70
2023/09/17 08:31:42;;;;;;;21.20;19.33;;;26.10;98.50;;;;;;5049843;28;20521;-71
2023/09/17 08:34:08;;;;;;;19.17;17.37;;;25.90;99.10;;;;;;5047820;28;20445;-73
2023/09/17 08:36:38;;;;;;;23.93;21.83;;;25.60;99.90;;;;;;5053037;28;20492;-73
2023/09/17 08:39:06;;;;;;;21.40;19.50;;;25.50;99.90;;;;;;5049139;28;20445;-72
2023/09/17 08:41:34;;;;;;;21.40;19.47;;;25.40;99.90;;;;;;5048051;28;20449;-72
2023/09/17 08:44:04;;;;;;;20.23;17.87;;;25.50;99.90;;;;;;5052762;28;20497;-74
2023/09/17 08:46:32;;;;;;;18.03;16.23;;;25.60;99.90;;;;;;5047112;28;20473;-71
2023/09/17 08:49:01;;;;;;;16.20;14.90;;;26.50;98.80;;;;;;5052375;28;20507;-71
2023/09/17 08:51:32;;;;;;;18.00;16.37;;;27.50;96.80;;;;;;5050933;28;20500;-72
2023/09/17 08:54:09;;;;;;;16.43;14.93;;;28.50;94.90;;;;;;5046678;28;20443;-73
2023/09/17 08:56:42;;;;;;;15.50;14.10;;;29.30;93.10;;;;;;5031928;28;20975;-71
2023/09/17 08:59:13;;;;;;;15.07;13.77;;;29.60;92.30;;;;;;5047853;28;20446;-72
2023/09/17 09:01:43;;;;;;;16.83;15.47;;;29.90;92.10;;;;;;5050571;28;20484;-69
2023/09/17 09:04:10;;;;;;;16.40;14.83;;;30.10;91.40;;;;;;5048771;28;20524;-73
2023/09/17 09:06:39;;;;;;;13.90;12.73;;;30.30;90.90;;;;;;5045042;28;20458;-68
2023/09/17 09:09:09;;;;;;;15.50;14.20;;;30.70;90.50;;;;;;5051906;28;20978;-71
2023/09/17 09:11:36;;;;;;;12.40;11.30;;;30.90;89.80;;;;;;5046446;28;20564;-72
2023/09/17 09:14:05;;;;;;;13.47;12.23;;;31.20;89.50;;;;;;5050807;28;20526;-70
2023/09/17 09:16:36;;;;;;;12.33;11.13;;;31.40;88.00;;;;;;5047315;28;20876;-74
2023/09/17 09:19:03;;;;;;;12.93;11.10;;;31.60;87.70;;;;;;5040023;28;20482;-71
2023/09/17 09:21:31;;;;;;;11.10;10.20;;;31.80;86.60;;;;;;5050572;28;20504;-73
2023/09/17 09:23:58;;;;;;;11.03;9.93;;;31.90;86.30;;;;;;5042865;28;20992;-70
2023/09/17 09:26:35;;;;;;;10.00;9.20;;;31.70;85.80;;;;;;5047550;28;20497;-74
2023/09/17 09:29:04;;;;;;;11.53;10.43;;;31.80;86.10;;;;;;5034193;28;20452;-74
2023/09/17 09:31:31;;;;;;;8.30;7.50;;;31.70;85.40;;;;;;5043617;28;20944;-72
2023/09/17 09:33:59;;;;;;;9.80;9.00;;;31.60;86.40;;;;;;5046914;28;20434;-72
2023/09/17 09:36:28;;;;;;;8.80;8.10;;;31.30;86.50;;;;;;5042692;28;20494;-71
2023/09/17 09:38:56;;;;;;;8.80;8.00;;;30.80;87.30;;;;;;5051651;28;20952;-71
2023/09/17 09:41:23;;;;;;;7.90;7.20;;;30.30;88.70;;;;;;5049170;28;20448;-70
2023/09/17 09:43:52;;;;;;;7.47;6.87;;;30.20;89.40;;;;;;5052215;28;20488;-71
2023/09/17 09:46:19;;;;;;;7.67;7.07;;;29.90;90.30;;;;;;5045294;28;20475;-75
2023/09/17 09:48:50;;;;;;;7.83;6.80;;;30.00;90.20;;;;;;5050190;28;21004;-72
2023/09/17 09:51:18;;;;;;;7.67;6.97;;;30.20;89.70;;;;;;5049029;28;20457;-73
2023/09/17 09:53:45;;;;;;;5.87;5.37;;;30.90;88.10;;;;;;5046692;28;20986;-71
2023/09/17 09:56:13;;;;;;;7.00;6.50;;;31.60;86.10;;;;;;5048049;28;20566;-71
2023/09/17 09:58:40;;;;;;;6.37;5.77;;;31.90;84.70;;;;;;5044128;28;20440;-70
2023/09/17 10:01:08;;;;;;;6.43;5.93;;;31.80;84.20;;;;;;5050772;28;20460;-71
2023/09/17 10:03:35;;;;;;;6.40;5.63;;;31.10;85.60;;;;;;5046366;28;20478;-72
2023/09/17 10:06:06;;;;;;;9.10;6.07;;;30.20;87.40;;;;;;5051055;28;20805;-72
2023/09/17 10:08:34;;;;;;;6.50;6.00;;;29.50;89.70;;;;;;5052651;28;20442;-71
2023/09/17 10:11:01;;;;;;;7.27;6.67;;;28.80;90.70;;;;;;5045717;28;20847;-74
2023/09/17 10:13:28;;;;;;;6.33;5.83;;;28.20;91.70;;;;;;5052579;28;20457;-74
2023/09/17 10:15:56;;;;;;;10.80;6.90;;;27.90;92.50;;;;;;5045703;28;20466;-73
2023/09/17 10:18:26;;;;;;;6.63;5.97;;;27.70;92.80;;;;;;5049851;28;20464;-73
2023/09/17 10:20:55;;;;;;;6.83;6.20;;;27.50;93.30;;;;;;5049168;28;20854;-73
2023/09/17 10:23:23;;;;;;;7.90;6.37;;;27.40;93.80;;;;;;5052318;28;20454;-74
2023/09/17 10:25:51;;;;;;;6.80;5.80;;;27.30;93.80;;;;;;5049497;28;20544;-71
2023/09/17 10:28:20;;;;;;;6.73;6.13;;;27.40;94.30;;;;;;5052342;28;20441;-71
2023/09/17 10:30:51;;;;;;;7.73;6.93;;;27.90;93.60;;;;;;5049377;28;20824;-72
2023/09/17 10:33:20;;;;;;;6.20;5.60;;;28.50;93.00;;;;;;5052231;28;20529;-73
2023/09/17 10:35:50;;;;;;;10.70;6.50;;;28.90;92.40;;;;;;5044754;28;20557;-72
2023/09/17 10:38:19;;;;;;;8.67;6.00;;;28.90;92.10;;;;;;5054393;28;20511;-72
2023/09/17 10:40:46;;;;;;;7.03;6.40;;;28.50;92.20;;;;;;5053820;28;20434;-72
2023/09/17 10:43:16;;;;;;;7.80;7.07;;;28.50;92.10;;;;;;5057932;28;20434;-73
2023/09/17 10:45:45;;;;;;;7.70;6.30;;;28.40;92.50;;;;;;5065064;28;20505;-72
2023/09/17 10:48:13;;;;;;;6.93;6.33;;;28.20;92.60;;;;;;5059098;28;20952;-70
2023/09/17 10:50:42;;;;;;;6.07;5.47;;;28.00;92.70;;;;;;5056029;28;20474;-67
2023/09/17 10:53:12;;;;;;;7.93;5.53;;;27.90;93.10;;;;;;5051326;28;20522;-70
2023/09/17 10:55:48;;;;;;;6.47;5.60;;;27.80;93.30;;;;;;5062437;28;20458;-74
2023/09/17 10:58:21;;;;;;;6.43;4.90;;;27.80;93.60;;;;;;5037164;28;20952;-72
2023/09/17 11:00:50;;;;;;;6.57;5.50;;;27.70;93.70;;;;;;5028758;28;20449;-72
2023/09/17 11:03:20;;;;;;;5.80;5.20;;;27.70;93.20;;;;;;5049312;28;20433;-71
2023/09/17 11:05:50;;;;;;;5.60;5.10;;;27.50;93.40;;;;;;5039080;28;21061;-72
2023/09/17 11:08:19;;;;;;;5.73;5.17;;;27.30;93.70;;;;;;5043545;28;20439;-70
2023/09/17 11:10:46;;;;;;;8.37;5.13;;;27.10;93.90;;;;;;5048355;28;20492;-71
2023/09/17 11:13:16;;;;;;;6.00;5.40;;;27.00;94.20;;;;;;5049353;28;20446;-73
2023/09/17 11:15:43;;;;;;;6.00;5.43;;;26.70;94.60;;;;;;5046084;28;20458;-73
2023/09/17 11:18:11;;;;;;;6.37;5.50;;;26.40;94.80;;;;;;5045954;28;20544;-69
2023/09/17 11:20:58;;;;;;;5.67;4.83;;;26.20;95.20;;;;;;5049396;28;20509;-70
2023/09/17 11:23:38;;;;;;;5.33;4.93;;;26.00;95.80;;;;;;5044760;28;20445;-71
2023/09/17 11:26:06;;;;;;;7.33;5.30;;;25.70;96.60;;;;;;5049351;28;20488;-70
2023/09/17 11:28:38;;;;;;;6.63;6.03;;;25.50;97.00;;;;;;5054154;28;20501;-74
2023/09/17 11:31:09;;;;;;;7.30;5.40;;;25.30;97.60;;;;;;5046549;28;20477;-71
2023/09/17 11:33:38;;;;;;;7.23;6.53;;;25.10;99.90;;;;;;5053415;28;20496;-72
2023/09/17 11:36:05;;;;;;;9.33;7.20;;;24.60;99.90;;;;;;5049625;28;20512;-71
2023/09/17 11:38:32;;;;;;;6.87;5.90;;;24.30;99.90;;;;;;5051701;28;20471;-69
2023/09/17 11:41:08;;;;;;;9.27;7.50;;;24.10;99.90;;;;;;5054400;28;20444;-70
2023/09/17 11:43:40;;;;;;;9.67;7.50;;;24.00;99.90;;;;;;5052479;28;20441;-69
2023/09/17 11:46:09;;;;;;;6.60;6.10;;;23.90;99.90;;;;;;5043668;28;21064;-70
2023/09/17 11:48:37;;;;;;;7.27;6.60;;;23.70;99.90;;;;;;5052344;28;20457;-71
2023/09/17 11:51:21;;;;;;;9.57;8.60;;;23.40;99.90;;;;;;5049173;28;20443;-71
2023/09/17 11:53:52;;;;;;;7.67;6.87;;;23.10;99.90;;;;;;5048529;28;20815;-69
2023/09/17 11:56:20;;;;;;;7.00;6.40;;;22.90;99.90;;;;;;5053645;28;20813;-70
2023/09/17 11:58:57;;;;;;;7.20;6.50;;;22.80;99.90;;;;;;5048520;28;20932;-70
2023/09/17 12:01:24;;;;;;;7.03;6.33;;;22.70;99.90;;;;;;5024928;28;20435;-72
2023/09/17 12:03:54;;;;;;;7.90;7.20;;;22.80;99.90;;;;;;5050395;28;20461;-72
2023/09/17 12:06:22;;;;;;;14.93;8.60;;;23.00;99.90;;;;;;5052368;28;20867;-70
2023/09/17 12:08:49;;;;;;;10.53;8.90;;;23.20;99.90;;;;;;5046830;28;20524;-72
2023/09/17 12:11:23;;;;;;;12.87;10.67;;;23.50;99.90;;;;;;5047860;28;20469;-71
2023/09/17 12:13:53;;;;;;;10.40;9.40;;;23.80;99.90;;;;;;5046051;28;20479;-70
2023/09/17 12:16:24;;;;;;;9.10;8.20;;;24.20;99.90;;;;;;5051494;28;20507;-71
2023/09/17 12:18:52;;;;;;;7.60;6.90;;;24.70;99.90;;;;;;5054224;28;20529;-71
2023/09/17 12:21:20;;;;;;;6.60;6.10;;;25.00;99.90;;;;;;5054657;28;20480;-70
2023/09/17 12:27:29;;;;;;;7.23;6.53;;;25.40;99.90;;;;;;5051961;28;20461;-70
2023/09/17 12:29:56;;;;;;;7.40;6.77;;;25.60;99.90;;;;;;5043623;28;20442;-72
2023/09/17 12:32:25;;;;;;;6.63;6.03;;;25.80;99.90;;;;;;5050424;28;20438;-72
2023/09/17 12:34:53;;;;;;;5.93;5.40;;;26.00;99.90;;;;;;5053671;28;20439;-71
2023/09/17 12:37:20;;;;;;;9.10;6.83;;;26.20;99.90;;;;;;5051508;28;20520;-71
2023/09/17 12:39:49;;;;;;;7.70;5.40;;;26.20;99.90;;;;;;5053737;28;20790;-71